Time;durP1;ratioP1;P1;durP2;ratioP2;P2;SDS_P1;SDS_P2;PMS_P1;PMS_P2;Temp;Humidity;BMP_temperature;BMP_pressure;BME280_temperature;BME280_humidity;BME280_pressure;Samples;Min_cycle;Max_cycle;Signal;HPM_P1;HPM_P2
2021/01/14 00:00:20;;;;;;;3.90;1.30;;;;;;;-0.09;92.47;99403.53;5075756;28;20063;-73
2021/01/14 00:02:46;;;;;;;5.10;1.27;;;;;;;-0.73;91.34;99406.00;5081922;28;20093;-73
2021/01/14 00:05:13;;;;;;;3.22;1.08;;;;;;;-0.41;90.64;99393.66;5071037;28;20075;-73
2021/01/14 00:07:40;;;;;;;7.90;1.17;;;;;;;-0.10;89.93;99393.81;5028017;28;20082;-73
2021/01/14 00:10:08;;;;;;;7.38;1.00;;;;;;;1.12;86.65;99372.84;5051803;28;20055;-72
2021/01/14 00:12:35;;;;;;;2.53;1.00;;;;;;;0.11;85.37;99390.63;5062700;28;20539;-72
2021/01/14 00:15:04;;;;;;;3.60;1.05;;;;;;;2.16;80.11;99376.72;5088317;28;20063;-73
2021/01/14 00:17:31;;;;;;;2.42;1.00;;;;;;;2.45;76.35;99371.38;5069765;28;20043;-73
2021/01/14 00:19:57;;;;;;;3.97;1.30;;;;;;;5.28;68.10;99362.28;5080406;28;20585;-73
2021/01/14 00:22:25;;;;;;;6.10;1.33;;;;;;;2.75;76.10;99372.25;5060181;28;20040;-72
2021/01/14 00:24:51;;;;;;;5.32;1.33;;;;;;;-0.18;83.23;99383.94;5064143;28;20110;-73
2021/01/14 00:27:18;;;;;;;3.25;1.20;;;;;;;-0.31;82.72;99388.97;5076614;28;20102;-72
2021/01/14 00:29:44;;;;;;;3.40;1.27;;;;;;;-0.27;83.70;99390.28;5063898;28;20440;-73
2021/01/14 00:32:10;;;;;;;5.88;1.20;;;;;;;-0.45;83.29;99374.41;5048787;28;20530;-73
2021/01/14 00:34:37;;;;;;;2.85;1.00;;;;;;;-0.46;82.73;99372.75;5085785;28;20526;-72
2021/01/14 00:39:55;;;;;;;3.67;0.90;;;;;;;-0.53;83.26;99363.69;5079620;28;20426;-72
2021/01/14 00:42:21;;;;;;;5.25;1.20;;;;;;;-0.54;83.32;99372.72;5043761;28;20415;-72
2021/01/14 00:44:48;;;;;;;2.65;1.05;;;;;;;-0.48;84.39;99377.41;5091644;28;20154;-72
2021/01/14 00:47:14;;;;;;;1.83;0.93;;;;;;;-0.40;83.89;99380.09;5075954;28;20075;-72
2021/01/14 00:49:40;;;;;;;5.90;1.48;;;;;;;-0.50;85.06;99383.94;5071962;28;20072;-72
2021/01/14 00:52:10;;;;;;;7.18;1.00;;;;;;;-0.33;84.98;99374.91;5084804;28;20097;-72
2021/01/14 00:54:38;;;;;;;7.45;1.30;;;;;;;-0.30;84.26;99376.41;5070409;28;20047;-72
2021/01/14 00:57:08;;;;;;;10.32;1.50;;;;;;;-0.23;83.88;99377.41;5082055;28;20052;-72
2021/01/14 00:59:35;;;;;;;3.53;1.20;;;;;;;-0.20;84.27;99380.59;5084773;28;20525;-72
2021/01/14 01:02:04;;;;;;;3.22;1.00;;;;;;;-0.22;82.98;99387.97;5053771;28;20045;-72
2021/01/14 01:04:30;;;;;;;11.13;3.03;;;;;;;-0.30;86.18;99381.75;5034887;28;20047;-72
2021/01/14 01:06:57;;;;;;;3.08;1.00;;;;;;;-0.16;84.41;99387.28;5085534;28;20074;-72
2021/01/14 01:09:23;;;;;;;5.53;1.23;;;;;;;-0.13;84.37;99399.50;5058653;28;20048;-71
2021/01/14 01:11:50;;;;;;;3.33;1.10;;;;;;;-0.27;84.54;99384.94;5059680;28;20044;-72
2021/01/14 01:14:17;;;;;;;4.93;1.45;;;;;;;-0.14;83.24;99389.81;5056691;28;20442;-72
2021/01/14 01:16:44;;;;;;;2.90;1.17;;;;;;;-0.10;83.27;99397.34;5087875;28;20502;-72
2021/01/14 01:19:10;;;;;;;4.55;1.50;;;;;;;-0.29;83.97;99397.66;5069735;28;20037;-72
2021/01/14 01:21:41;;;;;;;2.65;1.30;;;;;;;-0.20;84.81;99406.53;5081210;28;20113;-72
2021/01/14 01:24:08;;;;;;;3.30;1.30;;;;;;;-0.28;85.34;99399.34;5069694;28;20071;-72
2021/01/14 01:26:35;;;;;;;4.05;1.38;;;;;;;-0.27;84.20;99401.00;5056709;28;20055;-71
2021/01/14 01:29:01;;;;;;;3.28;1.10;;;;;;;-0.24;83.89;99408.72;5077714;28;20053;-72
2021/01/14 01:31:27;;;;;;;9.30;2.60;;;;;;;-0.23;83.18;99402.34;5096425;22;20068;-73
2021/01/14 01:33:54;;;;;;;3.28;1.08;;;;;;;-0.31;83.43;99402.34;5059550;28;20041;-74
2021/01/14 01:36:21;;;;;;;3.72;1.33;;;;;;;-0.23;83.34;99402.34;5029444;28;20069;-74
2021/01/14 01:38:47;;;;;;;5.55;1.55;;;;;;;-0.47;84.01;99394.31;5065280;28;20045;-74
2021/01/14 01:41:13;;;;;;;4.07;1.48;;;;;;;-0.24;83.63;99392.66;5053425;28;20040;-73
2021/01/14 01:43:40;;;;;;;10.45;2.85;;;;;;;-0.40;83.68;99400.69;5068826;28;20139;-74
2021/01/14 01:46:06;;;;;;;4.72;1.52;;;;;;;-0.27;82.82;99390.28;5067074;28;20052;-74
2021/01/14 01:48:33;;;;;;;5.30;2.13;;;;;;;-0.28;82.28;99402.00;5048791;28;20052;-73
2021/01/14 01:51:01;;;;;;;6.70;1.90;;;;;;;-0.32;82.45;99395.31;5051049;28;20048;-75
2021/01/14 01:53:29;;;;;;;3.47;1.40;;;;;;;-0.31;82.02;99398.81;5032463;28;20054;-74
2021/01/14 01:55:56;;;;;;;4.05;1.45;;;;;;;-0.31;82.40;99401.50;5069747;28;20076;-75
2021/01/14 01:58:22;;;;;;;3.25;1.25;;;;;;;-0.19;81.56;99397.50;5071571;28;20410;-74
2021/01/14 02:00:49;;;;;;;3.58;1.65;;;;;;;-0.26;82.89;99391.97;5034645;28;20173;-74
2021/01/14 02:03:16;;;;;;;3.78;1.90;;;;;;;-0.22;83.45;99382.59;5067792;28;20044;-75
2021/01/14 02:05:43;;;;;;;4.55;1.33;;;;;;;-0.28;83.67;99385.94;5035117;28;20576;-74
2021/01/14 02:08:32;;;;;;;7.15;2.53;;;;;;;-0.26;83.25;99389.28;5067489;28;20040;-74
2021/01/14 02:11:08;;;;;;;6.07;1.40;;;;;;;-0.20;82.63;99391.31;5044569;28;20110;-74
2021/01/14 02:13:56;;;;;;;5.45;1.70;;;;;;;-0.10;82.73;99377.75;5056548;28;20059;-74
2021/01/14 02:16:22;;;;;;;6.03;1.67;;;;;;;-0.20;83.51;99393.16;5050963;28;20060;-74
2021/01/14 02:18:54;;;;;;;6.32;1.90;;;;;;;-0.17;83.73;99407.03;5070001;28;20057;-75
2021/01/14 02:21:20;;;;;;;5.95;2.00;;;;;;;-0.32;84.90;99392.63;5043617;28;20056;-74
2021/01/14 02:24:06;;;;;;;4.63;2.17;;;;;;;-0.20;85.64;99391.31;5051834;28;20123;-74
2021/01/14 02:26:34;;;;;;;4.22;2.33;;;;;;;-0.38;85.89;99394.16;5031545;28;20044;-75
2021/01/14 02:29:00;;;;;;;6.55;2.42;;;;;;;-0.34;85.38;99391.97;5051921;28;20049;-74
2021/01/14 02:31:27;;;;;;;6.00;1.70;;;;;;;-0.39;83.97;99407.72;5031655;28;20057;-74
2021/01/14 02:33:55;;;;;;;4.07;1.80;;;;;;;-0.29;84.08;99416.41;5056844;28;20070;-74
2021/01/14 02:36:22;;;;;;;4.78;1.65;;;;;;;-0.38;84.41;99412.91;5051328;28;20076;-75
2021/01/14 02:38:48;;;;;;;5.50;1.95;;;;;;;-0.54;85.02;99406.69;5065916;28;20118;-73
2021/01/14 02:41:15;;;;;;;7.05;2.08;;;;;;;-0.37;84.46;99400.34;5067025;28;20121;-76
2021/01/14 02:43:42;;;;;;;5.03;2.42;;;;;;;-0.30;84.23;99414.72;5067585;28;20075;-75
2021/01/14 02:46:09;;;;;;;5.47;1.98;;;;;;;-0.30;85.01;99416.56;5068982;28;20136;-74
2021/01/14 02:48:40;;;;;;;7.07;2.17;;;;;;;-0.26;85.15;99431.28;5048114;28;20506;-74
2021/01/14 02:51:12;;;;;;;5.35;2.25;;;;;;;-0.33;85.55;99423.06;5034253;28;20072;-74
2021/01/14 02:53:40;;;;;;;5.50;2.92;;;;;;;-0.40;86.53;99447.03;5049928;28;20041;-75
2021/01/14 02:56:07;;;;;;;6.22;2.35;;;;;;;-0.33;85.61;99463.22;5067661;28;20052;-74
2021/01/14 02:58:34;;;;;;;7.53;2.60;;;;;;;-0.41;86.13;99466.75;5034516;28;20059;-74
2021/01/14 03:01:01;;;;;;;5.00;1.45;;;;;;;-0.47;85.26;99450.50;5034775;28;20037;-74
2021/01/14 03:03:27;;;;;;;4.90;2.53;;;;;;;-0.43;85.74;99459.88;5051572;28;20119;-75
2021/01/14 03:05:53;;;;;;;4.75;2.13;;;;;;;-0.35;85.60;99451.88;5068045;28;20102;-74
2021/01/14 03:08:20;;;;;;;2.95;1.13;;;;;;;-0.33;84.98;99457.88;5049002;28;20041;-74
2021/01/14 03:10:46;;;;;;;6.15;2.78;;;;;;;-0.41;85.73;99476.63;5068248;28;20059;-74
2021/01/14 03:13:12;;;;;;;5.85;2.58;;;;;;;-0.43;86.29;99470.59;5051625;28;20047;-74
2021/01/14 03:15:39;;;;;;;4.00;2.25;;;;;;;-0.42;85.77;99472.28;5048091;28;20049;-74
2021/01/14 03:18:05;;;;;;;5.55;2.20;;;;;;;-0.37;85.71;99477.97;5064781;28;20123;-74
2021/01/14 03:20:31;;;;;;;4.78;2.28;;;;;;;-0.38;85.87;99468.25;5072138;28;20609;-74
2021/01/14 03:22:58;;;;;;;5.75;2.42;;;;;;;-0.23;86.32;99479.97;5054881;28;20051;-74
2021/01/14 03:25:24;;;;;;;7.07;2.40;;;;;;;-0.25;85.68;99481.16;5054775;28;20505;-74
2021/01/14 03:27:50;;;;;;;6.20;2.60;;;;;;;-0.24;85.94;99491.69;5054734;28;20067;-74
2021/01/14 03:30:18;;;;;;;6.25;2.40;;;;;;;-0.27;86.50;99500.06;5071208;28;20041;-74
2021/01/14 03:32:44;;;;;;;5.07;2.10;;;;;;;-0.29;86.26;99496.69;5071271;28;20099;-74
2021/01/14 03:35:11;;;;;;;5.15;2.70;;;;;;;-0.15;86.07;99490.72;5072589;28;20097;-74
2021/01/14 03:37:39;;;;;;;6.13;2.30;;;;;;;-0.21;84.60;99494.03;5071038;28;20044;-74
2021/01/14 03:40:07;;;;;;;7.38;2.83;;;;;;;-0.14;85.71;99481.69;5071218;28;20605;-74
2021/01/14 03:42:33;;;;;;;5.68;2.33;;;;;;;-0.23;85.70;99487.19;5071161;28;20049;-74
2021/01/14 03:44:59;;;;;;;3.97;2.35;;;;;;;-0.17;85.87;99500.75;5051885;28;20049;-73
2021/01/14 03:47:26;;;;;;;4.85;2.17;;;;;;;-0.16;85.82;99502.44;5068897;28;20053;-73
2021/01/14 03:49:53;;;;;;;5.13;2.42;;;;;;;-0.30;86.77;99512.91;5070964;28;20051;-75
2021/01/14 03:52:19;;;;;;;3.70;2.00;;;;;;;-0.21;86.30;99518.13;5070937;28;20048;-74
2021/01/14 03:54:46;;;;;;;7.00;2.50;;;;;;;-0.17;86.86;99521.31;5070969;28;20044;-75
2021/01/14 03:57:13;;;;;;;3.35;1.75;;;;;;;-0.14;85.57;99521.84;5070333;28;20080;-73
2021/01/14 03:59:39;;;;;;;6.97;2.40;;;;;;;-0.18;86.70;99525.00;5054555;28;20056;-74
2021/01/14 04:02:06;;;;;;;3.10;1.73;;;;;;;-0.27;87.22;99512.59;5058603;28;20454;-74
2021/01/14 04:04:34;;;;;;;5.05;2.78;;;;;;;-0.14;87.44;99534.38;5059804;28;20517;-74
2021/01/14 04:07:00;;;;;;;5.53;2.47;;;;;;;-0.20;87.42;99551.94;5066781;28;20586;-74
2021/01/14 04:09:28;;;;;;;10.70;2.88;;;;;;;-0.17;86.96;99562.31;5070514;28;20048;-74
2021/01/14 04:11:54;;;;;;;6.25;2.60;;;;;;;-0.22;87.34;99575.34;5070707;28;20080;-74
2021/01/14 04:14:20;;;;;;;8.93;2.58;;;;;;;-0.22;87.87;99578.03;5066937;28;20044;-74
2021/01/14 04:16:53;;;;;;;5.15;2.70;;;;;;;-0.06;87.66;99572.75;5050789;28;20053;-73
2021/01/14 04:19:20;;;;;;;5.10;3.00;;;;;;;-0.12;88.04;99577.91;5053007;28;20051;-73
2021/01/14 04:21:48;;;;;;;6.15;2.50;;;;;;;-0.25;88.00;99591.75;5053701;28;20052;-74
2021/01/14 04:24:14;;;;;;;5.47;2.13;;;;;;;-0.21;87.77;99585.06;5036536;28;20037;-74
2021/01/14 04:26:41;;;;;;;5.72;2.78;;;;;;;-0.11;87.46;99588.44;5034591;28;20140;-74
2021/01/14 04:29:08;;;;;;;7.28;3.03;;;;;;;-0.12;87.36;99597.50;5056817;28;20514;-74
2021/01/14 04:31:34;;;;;;;5.72;2.95;;;;;;;-0.03;88.00;99601.88;5053428;28;20770;-74
2021/01/14 04:34:01;;;;;;;10.30;3.33;;;;;;;-0.14;88.38;99607.53;5071177;28;20094;-74
2021/01/14 04:36:28;;;;;;;5.63;2.83;;;;;;;-0.18;88.79;99611.53;5052934;28;20482;-74
2021/01/14 04:38:54;;;;;;;5.47;2.40;;;;;;;-0.19;88.86;99620.56;5069798;28;20079;-74
2021/01/14 04:41:21;;;;;;;4.35;2.67;;;;;;;-0.23;88.69;99624.53;5069269;28;20052;-74
2021/01/14 04:43:49;;;;;;;6.03;3.17;;;;;;;-0.08;89.00;99635.50;5036963;28;20048;-74
2021/01/14 04:46:16;;;;;;;5.60;3.03;;;;;;;-0.30;88.74;99652.94;5036437;28;20123;-74
2021/01/14 04:48:47;;;;;;;8.57;2.88;;;;;;;-0.20;89.57;99648.31;5069569;28;20044;-74
2021/01/14 04:51:18;;;;;;;6.80;3.60;;;;;;;-0.19;90.07;99668.75;5053390;28;20056;-73
2021/01/14 04:53:47;;;;;;;7.78;3.85;;;;;;;-0.23;88.63;99675.41;5050182;28;20040;-74
2021/01/14 04:56:14;;;;;;;5.63;2.42;;;;;;;-0.19;90.10;99676.78;5034909;28;20102;-74
2021/01/14 04:58:42;;;;;;;9.73;4.47;;;;;;;-0.23;89.93;99674.56;5025817;28;20404;-74
2021/01/14 05:01:19;;;;;;;5.35;3.63;;;;;;;-0.27;90.38;99682.09;5050026;28;20131;-73
2021/01/14 05:03:48;;;;;;;7.47;3.97;;;;;;;-0.28;90.02;99693.78;5048886;28;20130;-75
2021/01/14 05:06:20;;;;;;;11.05;4.30;;;;;;;-0.19;90.95;99690.16;5031843;28;20041;-75
2021/01/14 05:08:50;;;;;;;8.23;4.22;;;;;;;-0.18;90.97;99677.63;5068839;28;20052;-74
2021/01/14 05:11:20;;;;;;;7.32;3.25;;;;;;;-0.27;90.73;99695.47;5069238;28;20060;-75
2021/01/14 05:13:47;;;;;;;6.85;3.55;;;;;;;-0.24;90.87;99705.03;5069340;28;20506;-75
2021/01/14 05:16:13;;;;;;;7.32;4.10;;;;;;;-0.22;92.67;99716.41;5049845;28;20045;-75
2021/01/14 05:18:40;;;;;;;7.30;3.92;;;;;;;-0.26;94.38;99723.06;5049473;28;20400;-75
2021/01/14 05:21:07;;;;;;;7.30;4.45;;;;;;;-0.06;95.17;99716.50;5069388;28;20052;-74
2021/01/14 05:23:33;;;;;;;5.10;2.70;;;;;;;-0.15;94.60;99720.13;5051057;28;20063;-75
2021/01/14 05:26:00;;;;;;;8.48;5.03;;;;;;;-0.13;94.22;99732.38;5070764;28;20059;-74
2021/01/14 05:28:29;;;;;;;7.60;4.43;;;;;;;-0.17;94.49;99741.72;5069164;28;20055;-75
2021/01/14 05:31:17;;;;;;;7.27;4.20;;;;;;;-0.13;93.08;99745.75;5069243;28;20106;-75
2021/01/14 05:33:59;;;;;;;10.10;5.20;;;;;;;-0.05;92.87;99745.81;5050991;28;20305;-75
2021/01/14 05:36:25;;;;;;;10.45;5.05;;;;;;;-0.14;93.44;99765.50;5061622;28;20083;-74
2021/01/14 05:38:52;;;;;;;11.60;6.22;;;;;;;-0.25;94.24;99773.78;5063339;28;20102;-75
2021/01/14 05:41:27;;;;;;;7.90;5.45;;;;;;;-0.19;94.84;99778.53;5048780;28;20656;-75
2021/01/14 05:43:56;;;;;;;11.55;5.03;;;;;;;-0.15;94.41;99787.06;5068986;28;20123;-74
2021/01/14 05:46:23;;;;;;;7.38;4.72;;;;;;;-0.06;95.09;99800.38;5070024;28;20078;-75
2021/01/14 05:48:55;;;;;;;9.15;4.90;;;;;;;-0.12;95.12;99802.84;5068949;28;20425;-75
2021/01/14 05:51:22;;;;;;;7.13;4.63;;;;;;;-0.16;94.71;99804.97;5061924;28;20056;-75
2021/01/14 05:53:52;;;;;;;8.75;4.40;;;;;;;-0.16;94.44;99814.84;5045658;28;20052;-75
2021/01/14 05:56:34;;;;;;;9.85;5.82;;;;;;;-0.19;95.07;99826.72;5069049;28;20045;-74
2021/01/14 05:59:02;;;;;;;9.40;4.63;;;;;;;-0.19;94.85;99832.06;5049455;28;20156;-73
2021/01/14 06:01:29;;;;;;;11.88;6.30;;;;;;;-0.11;95.21;99839.31;5054885;28;20052;-74
2021/01/14 06:04:12;;;;;;;11.00;5.95;;;;;;;-0.05;94.65;99846.72;5071134;28;20044;-74
2021/01/14 06:06:43;;;;;;;11.25;5.53;;;;;;;-0.17;94.96;99843.47;5025292;28;20040;-73
2021/01/14 06:09:12;;;;;;;10.15;6.20;;;;;;;-0.20;95.34;99846.44;5068882;28;20117;-75
2021/01/14 06:11:39;;;;;;;11.88;6.90;;;;;;;-0.18;95.67;99860.53;5068518;28;20106;-74
2021/01/14 06:14:05;;;;;;;12.70;6.43;;;;;;;-0.11;95.66;99845.53;5052053;28;20552;-75
2021/01/14 06:16:48;;;;;;;12.05;6.45;;;;;;;-0.12;95.44;99865.25;5069563;28;20120;-74
2021/01/14 06:19:15;;;;;;;10.90;6.47;;;;;;;-0.14;95.72;99867.25;5068751;28;20059;-74
2021/01/14 06:21:46;;;;;;;13.60;8.10;;;;;;;-0.14;95.63;99866.41;5069832;28;20107;-75
2021/01/14 06:24:29;;;;;;;12.27;6.80;;;;;;;-0.15;95.92;99873.59;5052064;28;20052;-75
2021/01/14 06:26:58;;;;;;;11.60;7.20;;;;;;;-0.01;95.84;99878.41;5068389;28;20049;-75
2021/01/14 06:29:28;;;;;;;13.40;8.23;;;;;;;-0.03;95.53;99885.75;5048563;28;20053;-74
2021/01/14 06:32:14;;;;;;;17.10;7.78;;;;;;;-0.07;95.33;99894.25;5051614;28;20464;-75
2021/01/14 06:34:44;;;;;;;12.52;7.22;;;;;;;0.03;95.79;99905.69;5048639;28;20045;-74
2021/01/14 06:37:19;;;;;;;13.10;7.53;;;;;;;-0.03;96.04;99901.81;5035272;28;20049;-75
2021/01/14 06:39:52;;;;;;;16.08;7.82;;;;;;;0.09;95.72;99909.59;5068661;28;20048;-74
2021/01/14 06:42:23;;;;;;;16.33;8.07;;;;;;;0.00;97.76;99922.09;5051585;28;20056;-74
2021/01/14 06:44:56;;;;;;;18.58;9.30;;;;;;;0.08;98.78;99930.16;5068621;28;20049;-75
2021/01/14 06:47:36;;;;;;;13.57;9.13;;;;;;;0.03;98.60;99931.63;5051966;28;20567;-73
2021/01/14 06:50:14;;;;;;;12.82;8.32;;;;;;;0.15;98.99;99936.59;5068526;28;20057;-73
2021/01/14 06:52:42;;;;;;;15.90;8.80;;;;;;;0.03;97.86;99939.66;5068477;28;20094;-74
2021/01/14 06:55:16;;;;;;;15.80;7.35;;;;;;;-0.02;97.44;99951.72;5054340;28;20072;-74
2021/01/14 06:57:59;;;;;;;16.50;8.82;;;;;;;0.11;97.14;99961.16;5055522;28;20048;-74
2021/01/14 07:00:28;;;;;;;12.73;7.07;;;;;;;-0.06;97.20;99962.88;5073327;28;20503;-74
2021/01/14 07:03:18;;;;;;;16.70;9.82;;;;;;;-0.03;96.67;99982.16;5071932;28;20738;-74
2021/01/14 07:05:44;;;;;;;16.52;8.18;;;;;;;0.15;97.02;99986.66;5070252;28;20044;-74
2021/01/14 07:08:35;;;;;;;15.18;8.55;;;;;;;0.20;96.90;99992.41;5067725;28;20761;-73
2021/01/14 07:11:05;;;;;;;13.32;8.10;;;;;;;0.21;96.85;100010.16;5067881;28;20530;-73
2021/01/14 07:13:52;;;;;;;14.13;8.40;;;;;;;0.20;96.33;100009.31;5072918;28;20414;-74
2021/01/14 07:16:20;;;;;;;11.85;7.00;;;;;;;0.19;95.67;100017.50;5054423;28;20053;-74
2021/01/14 07:18:47;;;;;;;12.70;6.75;;;;;;;0.28;95.57;100022.78;5055137;28;20521;-74
2021/01/14 07:21:32;;;;;;;9.27;6.20;;;;;;;0.34;95.36;100029.38;5071883;28;20072;-74
2021/01/14 07:24:18;;;;;;;10.05;6.30;;;;;;;0.40;94.54;100027.88;5052219;28;20073;-74
2021/01/14 07:26:46;;;;;;;11.20;6.32;;;;;;;0.36;94.91;100035.38;5071623;28;20048;-73
2021/01/14 07:29:14;;;;;;;12.45;7.43;;;;;;;0.38;94.78;100044.13;5055661;28;20452;-74
2021/01/14 07:31:50;;;;;;;16.13;6.38;;;;;;;0.40;95.29;100058.19;5062314;23;20219;-71
2021/01/14 07:34:40;;;;;;;10.85;6.55;;;;;;;0.49;94.43;100072.53;5064025;28;20127;-72
2021/01/14 07:37:14;;;;;;;12.65;6.53;;;;;;;0.53;94.43;100073.91;5077958;28;20072;-72
2021/01/14 07:39:44;;;;;;;9.60;5.70;;;;;;;0.49;94.16;100078.72;5092928;28;20051;-72
2021/01/14 07:42:31;;;;;;;16.77;7.15;;;;;;;0.49;94.82;100092.13;5048836;28;20052;-72
2021/01/14 07:44:59;;;;;;;10.85;6.53;;;;;;;0.60;93.79;100097.25;5071361;28;20055;-70
2021/01/14 07:47:27;;;;;;;10.52;6.53;;;;;;;0.56;93.54;100111.97;5054655;28;20107;-72
2021/01/14 07:49:53;;;;;;;11.95;6.88;;;;;;;0.63;93.53;100115.72;5054651;28;20507;-72
2021/01/14 07:52:31;;;;;;;11.38;6.72;;;;;;;0.66;93.43;100123.47;5070171;28;20063;-73
2021/01/14 07:54:59;;;;;;;12.13;6.80;;;;;;;0.71;93.28;100127.47;5043330;28;20111;-73
2021/01/14 07:57:27;;;;;;;10.35;6.18;;;;;;;0.73;92.98;100138.91;5032415;28;20052;-72
2021/01/14 07:59:56;;;;;;;14.13;6.90;;;;;;;0.84;92.57;100149.41;5072440;28;20052;-70
2021/01/14 08:02:23;;;;;;;13.45;6.85;;;;;;;0.78;92.94;100150.00;5054488;28;20057;-71
2021/01/14 08:04:50;;;;;;;9.88;6.10;;;;;;;0.76;93.44;100160.06;5070450;28;20506;-73
2021/01/14 08:07:26;;;;;;;9.35;5.72;;;;;;;0.84;92.58;100162.81;5068066;28;20506;-73
2021/01/14 08:09:52;;;;;;;10.38;6.07;;;;;;;0.88;92.75;100174.91;5070859;28;20128;-73
2021/01/14 08:12:28;;;;;;;8.82;5.60;;;;;;;0.80;92.59;100182.88;5062428;28;20045;-73
2021/01/14 08:14:54;;;;;;;12.13;6.20;;;;;;;0.84;93.10;100190.47;5071890;28;20090;-73
2021/01/14 08:17:29;;;;;;;10.55;6.22;;;;;;;0.86;92.93;100193.00;5070994;28;20691;-73
2021/01/14 08:19:55;;;;;;;12.15;6.60;;;;;;;0.99;93.04;100199.66;5070736;28;20048;-73
2021/01/14 08:22:23;;;;;;;11.52;5.95;;;;;;;1.08;92.39;100203.25;5070547;28;20040;-72
2021/01/14 08:24:59;;;;;;;12.55;6.05;;;;;;;1.02;92.22;100209.25;5055560;28;20133;-72
2021/01/14 08:27:35;;;;;;;11.43;6.18;;;;;;;1.07;92.91;100209.59;5030151;28;20138;-73
2021/01/14 08:30:12;;;;;;;12.05;6.38;;;;;;;1.04;91.94;100220.63;5044194;28;20053;-73
2021/01/14 08:32:39;;;;;;;12.50;6.32;;;;;;;1.20;92.05;100220.78;5058122;28;20049;-73
2021/01/14 08:35:30;;;;;;;11.40;6.45;;;;;;;1.03;92.45;100231.56;5057339;28;20690;-73
2021/01/14 08:37:57;;;;;;;12.07;6.15;;;;;;;1.17;92.51;100233.69;5055721;28;20052;-72
2021/01/14 08:40:23;;;;;;;13.38;5.95;;;;;;;1.20;92.95;100233.38;5071462;28;20063;-72
2021/01/14 08:43:01;;;;;;;11.65;6.20;;;;;;;1.00;92.88;100254.16;5071506;28;20048;-72
2021/01/14 08:45:32;;;;;;;9.05;5.40;;;;;;;1.01;93.11;100253.19;5069641;28;20115;-72
2021/01/14 08:47:59;;;;;;;12.80;6.75;;;;;;;1.03;93.16;100259.22;5070024;28;20052;-73
2021/01/14 08:50:32;;;;;;;11.90;6.82;;;;;;;1.16;93.70;100261.50;5070024;28;20094;-72
2021/01/14 08:53:03;;;;;;;12.25;6.32;;;;;;;1.25;92.43;100266.81;5069985;28;20097;-72
2021/01/14 08:55:30;;;;;;;9.50;5.85;;;;;;;1.40;92.19;100275.13;5053286;28;20055;-72
2021/01/14 08:57:56;;;;;;;12.82;5.97;;;;;;;1.38;92.56;100281.69;5069768;28;20052;-72
2021/01/14 09:00:25;;;;;;;13.45;6.35;;;;;;;1.08;92.11;100273.00;5037016;28;20102;-72
2021/01/14 09:02:51;;;;;;;12.75;6.57;;;;;;;1.41;92.09;100284.03;5069846;28;20092;-73
2021/01/14 09:05:18;;;;;;;12.20;5.85;;;;;;;1.24;91.73;100283.91;5069650;28;20518;-73
2021/01/14 09:08:04;;;;;;;9.27;4.78;;;;;;;1.29;92.15;100284.28;5034807;28;20102;-72
2021/01/14 09:10:50;;;;;;;12.35;4.20;;;;;;;1.46;90.95;100293.31;5063200;28;20485;-73
2021/01/14 09:13:23;;;;;;;17.95;4.43;;;;;;;1.60;91.74;100297.28;5069538;28;20041;-72
2021/01/14 09:15:52;;;;;;;7.95;3.83;;;;;;;1.82;91.24;100301.28;5053032;28;20050;-72
2021/01/14 09:18:28;;;;;;;9.00;4.13;;;;;;;1.98;90.60;100304.94;5068703;28;20052;-72
2021/01/14 09:20:55;;;;;;;10.20;4.45;;;;;;;2.03;90.64;100317.91;5069655;28;20079;-73
2021/01/14 09:23:27;;;;;;;9.25;4.10;;;;;;;2.02;89.69;100313.53;5069169;28;20044;-72
2021/01/14 09:25:54;;;;;;;6.25;3.03;;;;;;;1.91;89.37;100317.31;5043823;28;20126;-72
2021/01/14 09:28:22;;;;;;;10.98;4.22;;;;;;;2.15;88.86;100337.25;5052645;28;20507;-72
2021/01/14 09:30:53;;;;;;;7.40;3.25;;;;;;;1.96;89.13;100341.03;5052784;28;20049;-72
2021/01/14 09:33:24;;;;;;;8.05;3.35;;;;;;;1.78;88.62;100346.41;5069434;28;20071;-72
2021/01/14 09:36:23;;;;;;;9.35;3.80;;;;;;;2.01;88.93;100347.63;5067985;28;20518;-73
2021/01/14 09:38:58;;;;;;;10.77;3.35;;;;;;;2.73;88.60;100363.47;5021565;28;20041;-72
2021/01/14 09:41:29;;;;;;;10.98;3.70;;;;;;;3.00;86.08;100365.91;5070612;28;20099;-72
2021/01/14 09:43:59;;;;;;;9.20;3.30;;;;;;;5.27;79.97;100365.56;5086140;28;20044;-70
2021/01/14 09:46:30;;;;;;;7.78;3.00;;;;;;;7.31;71.55;100359.78;5055294;28;20049;-70
2021/01/14 09:49:09;;;;;;;8.15;3.25;;;;;;;6.13;74.70;100377.13;5063636;28;20131;-70
2021/01/14 09:51:36;;;;;;;7.82;2.83;;;;;;;5.07;77.71;100385.09;5057728;28;20526;-72
2021/01/14 09:54:04;;;;;;;14.82;2.85;;;;;;;4.88;77.31;100386.34;5061695;28;20041;-69
2021/01/14 09:56:33;;;;;;;8.93;3.35;;;;;;;3.91;79.03;100399.03;5055905;28;20090;-72
2021/01/14 09:59:08;;;;;;;8.95;2.72;;;;;;;3.95;81.82;100399.53;5069234;28;20044;-70
2021/01/14 10:01:41;;;;;;;8.93;3.55;;;;;;;2.93;82.11;100402.56;5068675;28;20044;-70
2021/01/14 10:04:27;;;;;;;12.52;3.53;;;;;;;2.85;82.26;100410.59;5068983;28;20561;-70
2021/01/14 10:07:05;;;;;;;11.45;3.70;;;;;;;2.73;85.51;100414.59;5041081;28;20127;-70
2021/01/14 10:09:35;;;;;;;10.05;3.40;;;;;;;3.56;82.30;100420.91;5065085;28;20060;-70
2021/01/14 10:12:05;;;;;;;10.38;3.22;;;;;;;4.52;79.14;100413.78;5057153;28;20057;-70
2021/01/14 10:14:32;;;;;;;8.00;3.00;;;;;;;6.86;78.84;100406.13;5043815;28;20545;-70
2021/01/14 10:17:13;;;;;;;10.40;3.30;;;;;;;7.18;72.07;100404.88;5068588;28;20047;-70
2021/01/14 10:19:43;;;;;;;7.90;2.95;;;;;;;6.13;71.03;100409.59;5068817;28;20062;-70
2021/01/14 10:22:10;;;;;;;7.22;3.00;;;;;;;5.38;72.97;100411.09;5068507;28;20464;-70
2021/01/14 10:24:36;;;;;;;5.43;3.05;;;;;;;4.75;75.90;100421.19;5022184;28;20045;-70
2021/01/14 10:27:19;;;;;;;8.07;3.40;;;;;;;4.23;78.34;100429.69;5061892;28;20055;-70
2021/01/14 10:29:46;;;;;;;5.53;3.30;;;;;;;4.11;76.49;100437.31;5072705;28;20048;-70
2021/01/14 10:32:23;;;;;;;10.60;4.15;;;;;;;4.00;76.23;100446.56;5072507;28;20114;-70
2021/01/14 10:34:51;;;;;;;6.95;3.20;;;;;;;3.19;78.91;100435.63;5073949;28;20593;-70
2021/01/14 10:37:31;;;;;;;12.77;5.13;;;;;;;3.35;80.01;100443.78;5043917;28;20048;-70
2021/01/14 10:40:00;;;;;;;6.30;3.25;;;;;;;3.38;78.85;100439.91;5039680;28;20048;-70
2021/01/14 10:42:34;;;;;;;6.90;3.22;;;;;;;3.50;78.91;100437.72;5088980;28;20049;-70
2021/01/14 10:45:07;;;;;;;9.10;3.53;;;;;;;3.69;78.80;100440.97;5072187;28;20071;-70
2021/01/14 10:47:34;;;;;;;5.97;3.90;;;;;;;3.61;80.22;100435.56;5029395;28;20048;-70
2021/01/14 10:50:27;;;;;;;7.93;3.83;;;;;;;3.92;78.31;100435.78;5055978;28;20132;-70
2021/01/14 10:52:58;;;;;;;9.55;3.67;;;;;;;4.06;77.28;100436.13;5072221;28;20127;-70
2021/01/14 10:55:28;;;;;;;12.48;3.47;;;;;;;4.28;75.86;100436.28;5070624;28;20472;-70
2021/01/14 10:58:02;;;;;;;9.77;4.38;;;;;;;3.73;77.24;100436.09;5072580;28;20465;-70
2021/01/14 11:00:39;;;;;;;8.43;3.90;;;;;;;3.63;78.63;100444.34;5071996;28;20059;-70
2021/01/14 11:03:10;;;;;;;8.30;3.97;;;;;;;3.70;79.01;100439.97;5055578;28;20502;-70
2021/01/14 11:05:39;;;;;;;8.27;4.00;;;;;;;4.29;75.64;100435.25;5054604;28;20102;-70
2021/01/14 11:08:06;;;;;;;;;;;;;;;4.10;77.28;100434.78;5060162;28;20132;-70
2021/01/14 11:10:32;;;;;;;8.27;4.05;;;;;;;4.09;76.49;100427.69;5071899;28;20776;-70
2021/01/14 11:13:04;;;;;;;17.40;4.03;;;;;;;4.20;76.17;100425.47;5072162;28;20189;-70
2021/01/14 11:15:31;;;;;;;7.80;4.03;;;;;;;4.31;75.90;100418.91;5072308;28;20062;-70
2021/01/14 11:18:02;;;;;;;14.35;4.07;;;;;;;5.05;73.25;100418.53;5055573;28;20416;-70
2021/01/14 11:20:28;;;;;;;10.95;4.28;;;;;;;4.70;73.94;100427.94;5071963;28;20124;-70
2021/01/14 11:22:55;;;;;;;10.50;4.60;;;;;;;4.56;74.53;100423.22;5072125;28;20052;-70
2021/01/14 11:25:21;;;;;;;7.07;3.78;;;;;;;4.38;75.50;100425.31;5059748;28;20070;-70
2021/01/14 11:27:47;;;;;;;15.98;4.82;;;;;;;3.49;77.67;100436.03;5072592;28;20044;-70
2021/01/14 11:30:14;;;;;;;9.98;4.10;;;;;;;3.70;78.16;100439.13;5084371;28;20052;-70
2021/01/14 11:32:44;;;;;;;7.72;3.95;;;;;;;3.24;79.27;100438.69;5077121;28;20056;-70
2021/01/14 11:35:12;;;;;;;10.52;4.32;;;;;;;3.13;79.87;100441.66;5055117;28;20047;-70
2021/01/14 11:37:38;;;;;;;8.80;4.07;;;;;;;3.07;79.79;100447.72;5055561;28;20076;-70
2021/01/14 11:40:05;;;;;;;9.00;4.18;;;;;;;2.95;81.15;100451.69;5065519;28;20145;-70
2021/01/14 11:42:32;;;;;;;7.03;4.40;;;;;;;3.20;79.79;100453.47;5019240;28;20060;-70
2021/01/14 11:44:58;;;;;;;11.85;4.57;;;;;;;3.12;79.62;100456.13;5045470;28;20133;-70
2021/01/14 11:47:24;;;;;;;18.60;8.15;;;;;;;3.05;80.02;100449.72;5030945;28;20107;-70